Time;durP1;ratioP1;P1;durP2;ratioP2;P2;SDS_P1;SDS_P2;PMS_P1;PMS_P2;Temp;Humidity;BMP_temperature;BMP_pressure;BME280_temperature;BME280_humidity;BME280_pressure;Samples;Min_cycle;Max_cycle;Signal;HPM_P1;HPM_P2
2023/03/29 00:01:40;;;;;;;11.35;6.57;;;;;;;2.44;51.62;99819.56;5106579;28;20012;-80
2023/03/29 00:04:06;;;;;;;5.88;4.53;;;;;;;2.38;51.30;99827.81;5101729;28;20038;-80
2023/03/29 00:06:32;;;;;;;4.35;3.50;;;;;;;2.18;51.46;99830.50;5108142;28;20497;-80
2023/03/29 00:08:59;;;;;;;3.88;3.13;;;;;;;2.21;51.65;99829.97;5112873;28;20019;-80
2023/03/29 00:11:26;;;;;;;3.47;3.15;;;;;;;2.21;51.28;99829.97;5094663;28;20085;-80
2023/03/29 00:13:51;;;;;;;4.07;3.42;;;;;;;2.23;51.34;99828.59;5094528;28;20019;-80
2023/03/29 00:16:17;;;;;;;5.50;3.78;;;;;;;2.14;51.54;99823.84;5094507;28;20028;-80
2023/03/29 00:18:43;;;;;;;4.07;3.10;;;;;;;2.15;51.86;99820.84;5111024;28;20039;-80
2023/03/29 00:21:09;;;;;;;5.90;3.65;;;;;;;2.12;52.10;99823.28;5111618;28;20015;-80
2023/03/29 00:23:34;;;;;;;3.95;3.47;;;;;;;2.08;52.03;99823.84;5107100;28;20091;-80
2023/03/29 00:26:00;;;;;;;6.50;3.97;;;;;;;2.21;51.94;99830.78;5112558;28;20027;-80
2023/03/29 00:28:26;;;;;;;5.05;3.90;;;;;;;2.09;51.52;99824.66;5094254;28;20023;-80
2023/03/29 00:30:52;;;;;;;3.92;3.53;;;;;;;2.02;52.04;99832.38;5094301;28;20104;-80
2023/03/29 00:33:19;;;;;;;3.25;2.95;;;;;;;1.89;52.20;99829.00;5092472;28;20024;-80
2023/03/29 00:35:47;;;;;;;6.40;3.17;;;;;;;1.96;52.10;99845.31;5094336;28;20024;-80
2023/03/29 00:38:13;;;;;;;5.22;3.28;;;;;;;1.88;52.74;99832.03;5094144;28;20412;-81
2023/03/29 00:40:45;;;;;;;3.42;3.00;;;;;;;1.84;52.34;99828.97;5095376;28;20031;-80
2023/03/29 00:43:13;;;;;;;4.30;3.08;;;;;;;1.80;52.08;99836.94;5094091;28;20023;-80
2023/03/29 00:45:39;;;;;;;4.53;4.13;;;;;;;1.82;51.77;99837.53;5094044;28;20100;-80
2023/03/29 00:48:07;;;;;;;4.03;3.15;;;;;;;1.89;51.87;99831.75;5092926;28;20050;-80
2023/03/29 00:50:41;;;;;;;3.30;2.80;;;;;;;1.99;51.48;99839.25;5094805;28;20020;-80
2023/03/29 00:53:22;;;;;;;4.85;3.63;;;;;;;1.84;51.62;99842.75;5110217;28;20455;-81
2023/03/29 00:56:28;;;;;;;5.82;4.07;;;;;;;1.89;52.14;99847.47;5093882;28;20020;-80
2023/03/29 00:59:01;;;;;;;5.93;3.30;;;;;;;1.84;52.35;99845.50;5073655;28;20111;-80
2023/03/29 01:01:44;;;;;;;4.95;3.60;;;;;;;1.80;52.98;99855.44;5091835;28;20020;-80
2023/03/29 01:04:19;;;;;;;9.15;5.00;;;;;;;1.93;52.17;99854.09;5110539;28;20035;-79
2023/03/29 01:07:07;;;;;;;6.40;4.28;;;;;;;1.93;52.04;99848.59;5093015;28;20027;-80
2023/03/29 01:09:36;;;;;;;6.45;4.13;;;;;;;1.93;52.60;99851.34;5112018;28;20096;-80
2023/03/29 01:12:07;;;;;;;6.95;4.70;;;;;;;2.00;51.78;99845.63;5093884;28;20106;-79
2023/03/29 01:14:59;;;;;;;5.53;4.43;;;;;;;1.99;51.78;99842.00;5093450;28;20106;-80
2023/03/29 01:17:25;;;;;;;6.68;5.43;;;;;;;2.00;51.31;99843.66;5101538;28;20155;-80
2023/03/29 01:19:57;;;;;;;10.48;6.05;;;;;;;1.92;51.55;99847.78;5093716;28;20031;-80
2023/03/29 01:22:37;;;;;;;11.13;6.85;;;;;;;1.98;51.70;99848.63;5093542;28;20019;-80
2023/03/29 01:25:34;;;;;;;10.80;6.18;;;;;;;1.97;51.80;99841.44;5092421;28;20028;-80
2023/03/29 01:28:13;;;;;;;8.23;4.63;;;;;;;1.96;51.73;99840.59;5093524;28;20032;-80
2023/03/29 01:30:47;;;;;;;8.45;5.25;;;;;;;1.64;52.23;99847.06;5093473;28;20020;-80
2023/03/29 01:33:22;;;;;;;6.20;4.18;;;;;;;1.50;53.64;99849.44;5092829;28;20043;-80
2023/03/29 01:36:06;;;;;;;7.38;4.13;;;;;;;1.48;53.57;99854.41;5093612;28;20494;-80
2023/03/29 01:38:59;;;;;;;5.88;5.00;;;;;;;1.39;53.79;99847.72;5093380;28;20027;-80
2023/03/29 01:41:59;;;;;;;5.15;3.80;;;;;;;1.46;53.58;99859.38;5067882;28;20039;-80
2023/03/29 01:44:24;;;;;;;23.50;5.22;;;;;;;1.45;54.27;99865.97;5086241;28;20027;-81
2023/03/29 01:47:13;;;;;;;5.22;4.10;;;;;;;1.57;54.10;99848.38;5092852;28;20024;-80
2023/03/29 01:49:51;;;;;;;5.22;4.18;;;;;;;1.75;54.03;99870.03;5093279;28;20023;-80
2023/03/29 01:52:22;;;;;;;12.13;6.43;;;;;;;1.79;53.71;99867.56;5113978;28;20051;-80
2023/03/29 01:55:01;;;;;;;8.52;6.25;;;;;;;1.84;53.75;99869.53;5114741;28;20600;-80
2023/03/29 01:57:30;;;;;;;12.15;6.32;;;;;;;2.00;53.56;99873.22;5097043;28;20031;-80
2023/03/29 01:59:57;;;;;;;8.70;5.65;;;;;;;1.98;53.73;99864.34;5097198;28;20015;-80
2023/03/29 02:02:25;;;;;;;4.68;4.18;;;;;;;2.09;52.96;99866.91;5096975;28;20035;-79
2023/03/29 02:04:53;;;;;;;8.25;4.95;;;;;;;2.00;52.79;99879.53;5096928;28;20027;-80
2023/03/29 02:07:23;;;;;;;11.38;4.75;;;;;;;1.47;53.68;99869.28;5096876;28;20024;-80
2023/03/29 02:09:51;;;;;;;4.97;4.53;;;;;;;1.24;54.48;99884.25;5095776;28;20043;-80
2023/03/29 02:12:18;;;;;;;4.78;4.18;;;;;;;1.13;54.22;99883.34;5097021;28;20110;-80
2023/03/29 02:14:43;;;;;;;7.45;5.07;;;;;;;1.09;54.48;99887.72;5095890;28;20023;-80
2023/03/29 02:17:21;;;;;;;5.07;3.97;;;;;;;0.92;54.50;99899.69;5096940;28;20034;-80
2023/03/29 02:19:50;;;;;;;4.85;4.35;;;;;;;0.80;54.26;99890.72;5097091;28;20450;-80
2023/03/29 02:22:22;;;;;;;5.07;4.30;;;;;;;0.92;53.76;99907.94;5115152;28;20114;-80
2023/03/29 02:24:53;;;;;;;5.57;3.92;;;;;;;0.96;54.14;99906.31;5095716;28;20543;-80
2023/03/29 02:27:19;;;;;;;12.27;5.93;;;;;;;0.88;54.05;99920.56;5113226;28;20098;-80
2023/03/29 02:29:46;;;;;;;31.55;7.68;;;;;;;0.91;53.96;99914.53;5096779;28;20132;-80
2023/03/29 02:32:20;;;;;;;15.25;6.05;;;;;;;0.78;53.77;99926.78;5096863;28;20031;-80
2023/03/29 02:35:19;;;;;;;17.02;6.72;;;;;;;0.65;54.21;99925.28;5096594;28;20031;-79
2023/03/29 02:37:48;;;;;;;14.85;6.50;;;;;;;0.66;55.10;99932.44;5085087;28;20126;-80
2023/03/29 02:40:16;;;;;;;11.52;5.50;;;;;;;0.63;54.53;99930.22;5113954;28;20487;-80
2023/03/29 02:42:44;;;;;;;18.90;5.70;;;;;;;0.70;55.04;99933.59;5096548;28;20100;-79
2023/03/29 02:45:13;;;;;;;10.93;6.28;;;;;;;0.73;54.52;99947.97;5113707;28;20027;-80
2023/03/29 02:47:47;;;;;;;11.38;6.93;;;;;;;0.79;54.31;99945.00;5104921;28;20118;-81
2023/03/29 02:50:13;;;;;;;23.38;8.80;;;;;;;0.79;54.35;99939.50;5114698;28;20047;-80
2023/03/29 02:52:43;;;;;;;21.33;9.77;;;;;;;0.98;53.87;99941.88;5096455;28;20124;-80
2023/03/29 02:55:15;;;;;;;19.27;9.73;;;;;;;1.07;53.41;99936.72;5096147;28;20607;-80
2023/03/29 02:57:42;;;;;;;15.60;9.00;;;;;;;1.15;52.52;99943.69;5114357;28;20472;-80
2023/03/29 03:00:09;;;;;;;13.90;8.52;;;;;;;1.15;52.48;99933.50;5097357;28;20027;-80
2023/03/29 03:02:36;;;;;;;14.88;7.72;;;;;;;1.11;51.97;99935.13;5112725;28;20031;-80
2023/03/29 03:05:02;;;;;;;15.13;8.27;;;;;;;1.22;52.31;99939.66;5100160;28;20036;-80
2023/03/29 03:07:28;;;;;;;8.75;6.72;;;;;;;1.17;52.48;99945.09;5095862;28;20035;-80
2023/03/29 03:09:54;;;;;;;6.75;5.75;;;;;;;1.14;52.41;99948.38;5096031;28;20027;-80
2023/03/29 03:12:19;;;;;;;10.73;5.78;;;;;;;1.02;53.00;99956.78;5095950;28;20071;-80
2023/03/29 03:14:45;;;;;;;5.72;5.10;;;;;;;1.04;53.65;99962.06;5095747;28;20024;-80
2023/03/29 03:17:10;;;;;;;8.48;5.53;;;;;;;0.77;53.49;99958.19;5112938;28;20042;-80
2023/03/29 03:19:37;;;;;;;13.88;6.28;;;;;;;0.85;53.71;99956.91;5095882;28;20019;-80
2023/03/29 03:22:04;;;;;;;10.57;6.88;;;;;;;0.75;53.81;99949.34;5095916;28;20031;-80
2023/03/29 03:24:31;;;;;;;6.28;5.35;;;;;;;0.68;54.30;99944.03;5095461;28;20034;-80
2023/03/29 03:26:57;;;;;;;9.85;7.30;;;;;;;0.52;54.77;99961.47;5095548;28;20031;-80
2023/03/29 03:29:24;;;;;;;16.60;6.72;;;;;;;0.49;54.70;99956.47;5114130;28;20028;-80
2023/03/29 03:31:51;;;;;;;11.35;6.65;;;;;;;0.55;55.02;99969.22;5113087;28;20110;-81
2023/03/29 03:34:18;;;;;;;9.63;5.43;;;;;;;0.40;55.28;99970.69;5095150;28;20031;-79
2023/03/29 03:36:44;;;;;;;9.07;5.55;;;;;;;0.29;55.63;99974.38;5095583;28;20027;-80
2023/03/29 03:39:10;;;;;;;8.75;6.38;;;;;;;0.22;56.15;99971.81;5095483;28;20031;-80
2023/03/29 03:41:36;;;;;;;10.75;6.65;;;;;;;0.13;56.56;99976.94;5095178;28;20150;-80
2023/03/29 03:44:01;;;;;;;10.45;6.90;;;;;;;0.02;57.32;99982.50;5095165;28;20035;-81
2023/03/29 03:46:27;;;;;;;10.77;5.95;;;;;;;-0.07;57.19;99971.13;5095379;28;20417;-80
2023/03/29 03:48:53;;;;;;;10.63;6.32;;;;;;;-0.17;57.30;99972.63;5094621;28;20041;-81
2023/03/29 03:51:18;;;;;;;8.93;6.55;;;;;;;-0.06;57.22;99989.28;5094306;28;20024;-81
2023/03/29 03:53:44;;;;;;;15.93;6.63;;;;;;;-0.08;57.20;99984.03;5099446;28;20142;-80
2023/03/29 03:56:10;;;;;;;8.65;6.07;;;;;;;-0.02;56.99;99987.69;5095388;28;20023;-81
2023/03/29 03:58:36;;;;;;;9.07;6.28;;;;;;;-0.02;57.54;99990.44;5095156;28;20023;-81
2023/03/29 04:01:03;;;;;;;9.18;7.05;;;;;;;-0.09;57.51;100000.78;5095213;28;20030;-81
2023/03/29 04:03:29;;;;;;;12.73;7.85;;;;;;;-0.11;57.28;100003.78;5112278;28;20036;-80
2023/03/29 04:05:54;;;;;;;18.45;11.55;;;;;;;-0.01;56.94;100001.19;5107263;28;20035;-80
2023/03/29 04:08:21;;;;;;;27.35;13.48;;;;;;;0.02;57.26;100008.13;5094888;28;20569;-80
2023/03/29 04:10:58;;;;;;;34.80;18.17;;;;;;;-0.08;57.10;100010.72;5094719;28;20027;-81
2023/03/29 04:13:25;;;;;;;18.20;9.32;;;;;;;0.10;57.12;100013.19;5091505;28;20039;-80
2023/03/29 04:15:54;;;;;;;12.02;7.00;;;;;;;-0.03;57.06;100013.53;5093964;28;20035;-81
2023/03/29 04:18:20;;;;;;;12.85;8.10;;;;;;;0.04;56.91;100010.59;5094697;28;20035;-82
2023/03/29 04:20:46;;;;;;;24.73;10.25;;;;;;;0.06;56.17;100017.53;5101011;28;20023;-80
2023/03/29 04:23:13;;;;;;;35.47;20.92;;;;;;;-0.03;56.40;100008.03;5094102;28;20494;-80
2023/03/29 04:25:38;;;;;;;55.28;36.65;;;;;;;0.00;56.48;100013.03;5111507;28;20410;-81
2023/03/29 04:28:04;;;;;;;54.63;35.65;;;;;;;0.15;56.13;100030.88;5112824;28;20030;-79
2023/03/29 04:30:30;;;;;;;18.25;11.95;;;;;;;0.15;56.04;100011.59;5094490;28;20031;-82
2023/03/29 04:32:55;;;;;;;15.88;8.98;;;;;;;0.22;55.58;100007.59;5112654;28;20036;-81
2023/03/29 04:35:21;;;;;;;11.68;7.80;;;;;;;0.49;54.48;100017.03;5094087;28;20508;-82
2023/03/29 04:37:47;;;;;;;17.58;8.77;;;;;;;0.60;54.81;100023.50;5091149;28;20078;-82
2023/03/29 04:40:13;;;;;;;11.95;8.20;;;;;;;0.70;54.06;100024.47;5094480;28;20071;-80
2023/03/29 04:42:43;;;;;;;10.50;6.40;;;;;;;0.75;54.62;100025.63;5094301;28;20114;-80
2023/03/29 04:45:09;;;;;;;16.67;7.07;;;;;;;0.79;54.55;100026.78;5094165;28;20027;-81
2023/03/29 04:47:35;;;;;;;13.70;8.32;;;;;;;0.95;53.58;100031.38;5093966;28;20045;-81
2023/03/29 04:50:01;;;;;;;16.25;7.10;;;;;;;1.02;53.07;100033.13;5094220;28;20030;-79
2023/03/29 04:52:31;;;;;;;11.88;7.38;;;;;;;1.12;52.80;100041.50;5111520;28;20538;-80
2023/03/29 04:54:57;;;;;;;;;;;;;;;1.31;52.57;100042.00;5112134;28;20030;-80
2023/03/29 04:57:22;;;;;;;10.38;6.10;;;;;;;1.33;52.57;100033.47;5093867;28;19908;-81
2023/03/29 04:59:48;;;;;;;10.43;7.05;;;;;;;1.37;52.16;100045.63;5112103;28;20369;-81
2023/03/29 05:02:13;;;;;;;10.98;7.70;;;;;;;1.39;52.06;100047.06;5111724;28;20023;-81
2023/03/29 05:04:38;;;;;;;9.70;8.05;;;;;;;1.52;52.23;100045.78;5108281;28;20114;-80
2023/03/29 05:07:05;;;;;;;14.07;9.23;;;;;;;1.54;51.94;100043.59;5107822;28;20043;-81
2023/03/29 05:09:30;;;;;;;11.20;7.65;;;;;;;1.55;51.43;100030.66;5092257;28;20113;-79
2023/03/29 05:11:56;;;;;;;16.27;6.47;;;;;;;1.72;50.34;100044.31;5093109;28;20115;-80
2023/03/29 05:14:22;;;;;;;15.50;7.68;;;;;;;1.78;50.27;100043.25;5111106;28;20138;-81
2023/03/29 05:16:48;;;;;;;10.48;6.22;;;;;;;1.72;49.16;100033.28;5092029;28;20501;-79
2023/03/29 05:19:14;;;;;;;10.25;8.05;;;;;;;1.92;49.19;100051.09;5082410;28;20405;-80
2023/03/29 05:21:39;;;;;;;8.95;6.05;;;;;;;1.98;49.12;100058.34;5093939;28;20016;-79
2023/03/29 05:24:05;;;;;;;7.45;5.75;;;;;;;2.05;49.11;100055.34;5090840;28;20024;-82
2023/03/29 05:26:30;;;;;;;7.38;5.53;;;;;;;2.13;47.93;100056.78;5094728;28;20562;-80
2023/03/29 05:28:56;;;;;;;9.23;5.00;;;;;;;2.19;47.71;100048.28;5093191;28;20493;-80
2023/03/29 05:31:22;;;;;;;8.25;5.43;;;;;;;2.29;47.64;100053.03;5089318;28;20027;-82
2023/03/29 05:33:48;;;;;;;9.00;6.18;;;;;;;2.35;47.20;100057.50;5087668;28;20031;-81
2023/03/29 05:36:16;;;;;;;7.85;5.38;;;;;;;2.43;47.39;100047.91;5085407;28;20031;-80
2023/03/29 05:38:45;;;;;;;12.43;5.72;;;;;;;2.57;47.03;100064.84;5083806;28;20034;-81
2023/03/29 05:41:11;;;;;;;8.40;5.30;;;;;;;2.62;47.05;100056.56;5089100;28;20043;-80
2023/03/29 05:43:37;;;;;;;8.38;5.03;;;;;;;2.70;46.45;100048.88;5109768;28;20084;-80
2023/03/29 05:46:02;;;;;;;6.47;4.82;;;;;;;2.87;46.14;100055.03;5110399;28;20501;-81
2023/03/29 05:48:28;;;;;;;8.23;4.22;;;;;;;2.87;45.52;100052.28;5109389;28;20127;-80
2023/03/29 05:50:55;;;;;;;11.57;6.43;;;;;;;3.00;45.73;100055.66;5091910;28;20023;-80
2023/03/29 05:53:23;;;;;;;10.48;7.18;;;;;;;3.24;45.62;100056.03;5092133;28;20123;-84
2023/03/29 05:55:50;;;;;;;16.10;7.35;;;;;;;3.20;44.48;100038.31;5086030;28;20024;-82
2023/03/29 05:58:16;;;;;;;5.95;4.22;;;;;;;3.29;43.50;100041.38;5080925;28;20449;-82
2023/03/29 06:00:42;;;;;;;7.55;4.47;;;;;;;3.45;44.03;100040.31;5100549;28;20026;-80
2023/03/29 06:03:17;;;;;;;8.45;6.80;;;;;;;3.63;43.02;100024.31;5091079;28;20027;-80
2023/03/29 06:05:47;;;;;;;8.40;5.32;;;;;;;3.69;43.45;100033.44;5092093;28;20034;-81
2023/03/29 06:08:14;;;;;;;7.43;4.75;;;;;;;3.69;42.49;100039.78;5092544;28;20027;-81
2023/03/29 06:10:40;;;;;;;6.35;3.92;;;;;;;3.76;41.71;100040.38;5090385;28;20081;-79
2023/03/29 06:13:05;;;;;;;4.97;3.63;;;;;;;3.58;41.15;100035.34;5091887;28;20023;-83
2023/03/29 06:15:31;;;;;;;8.13;5.63;;;;;;;3.82;41.24;100041.19;5091961;28;20019;-79
2023/03/29 06:17:58;;;;;;;7.30;4.60;;;;;;;3.76;41.98;100042.28;5091678;28;20024;-79
2023/03/29 06:20:23;;;;;;;5.38;4.43;;;;;;;3.85;41.69;100053.63;5108117;28;20024;-80
2023/03/29 06:22:49;;;;;;;6.07;4.32;;;;;;;3.67;41.85;100030.94;5107118;28;20060;-79
2023/03/29 06:25:16;;;;;;;5.75;3.83;;;;;;;3.78;41.21;100046.44;5091807;28;20016;-80
2023/03/29 06:27:41;;;;;;;8.40;4.47;;;;;;;3.74;40.30;100009.38;5092358;28;20015;-80
2023/03/29 06:30:07;;;;;;;7.53;4.72;;;;;;;3.95;39.42;100039.00;5089582;28;20507;-81
2023/03/29 06:32:34;;;;;;;7.43;2.88;;;;;;;3.87;38.66;100035.66;5091978;28;20524;-81
2023/03/29 06:35:00;;;;;;;5.07;3.45;;;;;;;3.91;38.51;100047.00;5090831;28;20382;-80
2023/03/29 06:37:26;;;;;;;9.80;3.63;;;;;;;3.97;39.51;100048.66;5090042;28;20032;-79
2023/03/29 06:39:52;;;;;;;3.72;2.95;;;;;;;4.17;38.88;100049.78;5091971;28;20023;-79
2023/03/29 06:42:21;;;;;;;3.17;2.65;;;;;;;4.17;37.71;100053.38;5090738;28;20088;-80
2023/03/29 06:44:48;;;;;;;4.15;3.47;;;;;;;4.21;38.81;100057.25;5110322;28;20409;-78
2023/03/29 06:47:15;;;;;;;3.92;3.45;;;;;;;4.48;38.49;100046.97;5092556;28;20062;-79
2023/03/29 06:49:41;;;;;;;7.35;3.47;;;;;;;4.46;36.30;100063.03;5113225;28;20023;-80
2023/03/29 06:52:07;;;;;;;5.63;3.53;;;;;;;4.44;37.19;100062.47;5112310;28;20030;-80
2023/03/29 06:54:32;;;;;;;10.05;4.55;;;;;;;4.45;36.18;100061.38;5095491;28;20027;-80
2023/03/29 06:56:58;;;;;;;6.03;3.05;;;;;;;4.57;36.97;100061.06;5096003;28;20024;-80
2023/03/29 06:59:25;;;;;;;3.30;2.63;;;;;;;4.64;35.49;100054.13;5095108;28;20031;-79
2023/03/29 07:01:52;;;;;;;5.70;2.95;;;;;;;4.56;34.75;100051.09;5094920;28;20019;-80
2023/03/29 07:04:18;;;;;;;4.18;2.65;;;;;;;4.84;34.58;100073.75;5114067;27;20023;-79
2023/03/29 07:06:47;;;;;;;5.10;3.03;;;;;;;4.67;34.32;100063.00;5089552;28;20203;-81
2023/03/29 07:09:15;;;;;;;5.28;2.90;;;;;;;4.77;35.16;100062.97;5094691;28;20106;-83
2023/03/29 07:11:41;;;;;;;4.03;2.75;;;;;;;4.64;32.35;100070.75;5091556;28;20023;-81
2023/03/29 07:14:06;;;;;;;6.68;3.15;;;;;;;4.84;33.91;100096.78;5094433;28;20027;-81
2023/03/29 07:16:35;;;;;;;4.60;3.28;;;;;;;5.03;33.46;100079.50;5093062;28;20088;-81
2023/03/29 07:19:02;;;;;;;7.68;3.42;;;;;;;4.95;33.61;100074.53;5107113;28;20026;-80
2023/03/29 07:21:28;;;;;;;4.72;2.85;;;;;;;5.11;33.03;100100.28;5110256;28;20386;-80
2023/03/29 07:23:53;;;;;;;3.92;3.25;;;;;;;5.05;32.59;100085.59;5115976;28;20053;-81
2023/03/29 07:26:19;;;;;;;5.88;3.03;;;;;;;4.94;32.74;100070.09;5086864;28;20425;-80
2023/03/29 07:28:44;;;;;;;12.80;3.40;;;;;;;5.25;31.62;100106.06;5108519;28;20382;-79
2023/03/29 07:31:11;;;;;;;3.92;2.95;;;;;;;5.18;31.95;100087.75;5095134;28;20027;-79
2023/03/29 07:33:37;;;;;;;5.50;3.05;;;;;;;5.32;31.83;100093.53;5095617;28;20114;-78
2023/03/29 07:36:04;;;;;;;6.05;4.32;;;;;;;5.50;32.97;100095.94;5094340;28;20030;-79
2023/03/29 07:38:31;;;;;;;2.65;2.03;;;;;;;5.31;30.98;100102.16;5094178;28;20114;-78
2023/03/29 07:40:57;;;;;;;10.82;2.60;;;;;;;5.33;31.73;100089.66;5092942;28;20032;-79
2023/03/29 07:43:23;;;;;;;3.83;2.45;;;;;;;5.41;32.11;100109.59;5092641;28;20123;-79
2023/03/29 07:45:51;;;;;;;4.38;2.08;;;;;;;5.32;31.17;100103.81;5088903;28;20024;-78
2023/03/29 07:48:17;;;;;;;3.60;2.70;;;;;;;5.10;32.87;100098.63;5090685;28;20782;-78
2023/03/29 07:50:44;;;;;;;5.57;2.42;;;;;;;5.19;33.15;100114.41;5108866;27;20035;-79
2023/03/29 07:53:10;;;;;;;4.80;2.95;;;;;;;5.45;33.16;100094.88;5092858;28;20052;-79
2023/03/29 07:55:36;;;;;;;5.28;2.95;;;;;;;5.19;32.97;100100.53;5092146;28;20426;-79
2023/03/29 07:58:03;;;;;;;7.70;3.65;;;;;;;5.38;32.95;100107.41;5110457;28;20023;-78
2023/03/29 08:00:28;;;;;;;7.05;3.22;;;;;;;5.57;33.58;100108.41;5085347;28;20496;-78
2023/03/29 08:02:54;;;;;;;8.50;2.90;;;;;;;5.47;32.42;100098.19;5113046;28;20023;-81
2023/03/29 08:05:23;;;;;;;4.20;2.88;;;;;;;5.48;32.72;100101.78;5089092;28;20489;-81
2023/03/29 08:07:49;;;;;;;5.90;3.08;;;;;;;5.43;31.56;100116.53;5081345;28;20031;-81
2023/03/29 08:10:20;;;;;;;6.13;3.45;;;;;;;5.44;31.92;100104.31;5085776;28;20032;-80
2023/03/29 08:12:47;;;;;;;4.00;2.53;;;;;;;5.39;32.63;100112.66;5092187;28;20084;-81
2023/03/29 08:15:14;;;;;;;2.88;2.35;;;;;;;5.72;31.29;100099.16;5109833;28;20039;-82
2023/03/29 08:17:40;;;;;;;5.28;4.38;;;;;;;5.65;31.04;100098.63;5089739;28;20115;-79
2023/03/29 08:20:09;;;;;;;5.07;2.65;;;;;;;5.62;32.35;100088.97;5091940;28;20019;-78
2023/03/29 08:22:35;;;;;;;2.63;2.30;;;;;;;5.60;31.90;100093.13;5092901;28;20028;-78
2023/03/29 08:25:01;;;;;;;6.63;3.95;;;;;;;5.78;31.63;100102.72;5111399;28;20445;-78
2023/03/29 08:27:27;;;;;;;6.70;3.45;;;;;;;6.15;32.24;100098.59;5093525;28;20493;-79
2023/03/29 08:29:53;;;;;;;16.10;3.10;;;;;;;5.99;30.80;100094.28;5094186;28;20023;-79
2023/03/29 08:32:18;;;;;;;3.63;2.55;;;;;;;6.15;32.11;100084.72;5087661;28;20140;-79
2023/03/29 08:34:45;;;;;;;9.00;3.53;;;;;;;6.23;32.00;100099.13;5094319;28;20030;-78
2023/03/29 08:37:11;;;;;;;7.90;3.30;;;;;;;6.07;31.98;100098.41;5093863;28;20084;-79
2023/03/29 08:39:36;;;;;;;4.85;2.47;;;;;;;6.21;31.09;100081.88;5093255;28;20024;-79
2023/03/29 08:42:24;;;;;;;6.95;3.60;;;;;;;6.22;31.57;100100.25;5091583;28;20038;-80
2023/03/29 08:45:01;;;;;;;13.32;4.53;;;;;;;6.16;30.95;100096.69;5106300;28;20116;-80
2023/03/29 08:48:04;;;;;;;18.55;5.25;;;;;;;6.18;31.69;100094.44;5082523;28;20036;-80
2023/03/29 08:50:52;;;;;;;5.10;3.55;;;;;;;6.65;31.71;100085.69;5109918;28;20401;-80
2023/03/29 08:53:21;;;;;;;8.13;2.55;;;;;;;6.73;31.05;100085.00;5110483;28;20058;-80
2023/03/29 08:55:47;;;;;;;4.80;2.55;;;;;;;6.27;31.26;100087.09;5091536;28;20080;-79
2023/03/29 08:58:24;;;;;;;8.40;3.90;;;;;;;6.32;31.81;100070.41;5092441;28;20024;-79
2023/03/29 09:00:54;;;;;;;5.03;3.33;;;;;;;6.88;31.96;100064.56;5081166;28;20496;-80
2023/03/29 09:03:51;;;;;;;8.15;3.20;;;;;;;6.99;30.85;100077.22;5079508;28;20115;-81
2023/03/29 09:06:20;;;;;;;5.15;2.85;;;;;;;7.05;32.03;100066.03;5071078;28;20035;-80
2023/03/29 09:08:49;;;;;;;3.28;2.65;;;;;;;7.37;31.09;100068.16;5073409;28;20024;-79
2023/03/29 09:11:40;;;;;;;8.25;3.58;;;;;;;7.26;30.10;100063.84;5087693;28;20020;-78
2023/03/29 09:14:38;;;;;;;8.95;6.75;;;;;;;7.26;29.53;100064.66;5090535;28;20414;-79
2023/03/29 09:17:46;;;;;;;7.13;4.70;;;;;;;6.95;28.41;100058.66;5092757;28;20030;-80
2023/03/29 09:20:26;;;;;;;7.25;3.25;;;;;;;6.97;29.32;100075.84;5090038;28;20016;-79
2023/03/29 09:23:07;;;;;;;8.30;3.00;;;;;;;7.05;29.62;100058.53;5086173;28;20050;-80
2023/03/29 09:25:45;;;;;;;5.10;3.05;;;;;;;7.05;29.50;100064.09;5111673;28;20429;-79
2023/03/29 09:28:21;;;;;;;14.73;2.95;;;;;;;7.43;29.31;100046.63;5094743;28;20041;-79
2023/03/29 09:31:06;;;;;;;2.13;1.70;;;;;;;6.99;28.06;100062.47;5093492;28;20566;-79
2023/03/29 09:33:43;;;;;;;4.10;2.92;;;;;;;7.39;29.51;100063.09;5093423;28;20046;-79
2023/03/29 09:36:20;;;;;;;6.00;2.97;;;;;;;7.46;28.04;100046.03;5093282;28;20481;-79
2023/03/29 09:38:49;;;;;;;4.20;2.72;;;;;;;7.86;28.33;100052.13;5091093;28;20401;-79
2023/03/29 09:41:41;;;;;;;10.35;2.38;;;;;;;7.87;28.85;100045.41;5111191;28;20119;-79
2023/03/29 09:44:32;;;;;;;6.00;2.33;;;;;;;7.73;28.53;100036.16;5092917;28;20027;-79
2023/03/29 09:47:07;;;;;;;7.78;2.60;;;;;;;7.87;28.44;100036.25;5082220;28;20031;-80
2023/03/29 09:49:38;;;;;;;6.93;2.20;;;;;;;7.89;28.74;100017.25;5090592;28;20061;-80
2023/03/29 09:52:10;;;;;;;2.95;2.50;;;;;;;7.74;27.41;100023.91;5100031;28;20085;-79
2023/03/29 09:54:36;;;;;;;2.75;2.13;;;;;;;7.75;28.08;100010.81;5090852;28;20104;-79
2023/03/29 09:57:02;;;;;;;2.00;1.80;;;;;;;8.05;28.30;100025.34;5091465;28;20023;-80
2023/03/29 09:59:27;;;;;;;1.92;1.50;;;;;;;8.21;27.02;100023.13;5121856;28;20042;-79
2023/03/29 10:02:06;;;;;;;2.80;2.05;;;;;;;8.08;26.62;100021.94;5084764;28;20034;-80
2023/03/29 10:04:31;;;;;;;6.72;2.60;;;;;;;8.05;27.31;100009.47;5088398;28;20077;-79
2023/03/29 10:06:58;;;;;;;6.78;2.47;;;;;;;8.22;27.11;100017.28;5111747;28;20609;-78
2023/03/29 10:09:25;;;;;;;3.63;2.40;;;;;;;8.56;27.02;100016.09;5085204;28;20056;-79
2023/03/29 10:11:54;;;;;;;4.90;2.47;;;;;;;8.46;25.95;100019.06;5085883;28;20383;-80
2023/03/29 10:14:32;;;;;;;5.85;2.22;;;;;;;8.41;26.50;100000.47;5089935;28;20032;-79
2023/03/29 10:16:57;;;;;;;4.13;2.45;;;;;;;8.08;27.28;100021.94;5092203;28;20525;-78
2023/03/29 10:19:33;;;;;;;2.50;2.05;;;;;;;7.93;25.65;100011.91;5093118;28;20031;-79
2023/03/29 10:22:03;;;;;;;3.53;2.08;;;;;;;7.96;26.17;100002.94;5093599;28;20030;-79
2023/03/29 10:24:29;;;;;;;6.05;2.47;;;;;;;7.96;26.66;99984.28;5094439;28;20111;-80
2023/03/29 10:27:06;;;;;;;6.97;2.60;;;;;;;8.25;26.43;99997.13;5111088;28;20031;-80
2023/03/29 10:29:41;;;;;;;5.65;2.78;;;;;;;8.43;26.19;99992.63;5091479;28;20027;-80
2023/03/29 10:32:32;;;;;;;6.28;2.63;;;;;;;8.80;26.34;99987.19;5080800;28;20024;-79
2023/03/29 10:35:32;;;;;;;5.30;3.05;;;;;;;8.46;25.15;99980.03;5109464;28;20043;-80
2023/03/29 10:37:59;;;;;;;7.35;2.83;;;;;;;8.31;25.41;99983.09;5072283;28;20024;-80
2023/03/29 10:40:29;;;;;;;2.00;1.70;;;;;;;8.49;25.35;99965.47;5109361;28;20035;-81
2023/03/29 10:42:58;;;;;;;7.35;2.50;;;;;;;8.46;25.29;99973.63;5088846;28;20479;-80
2023/03/29 10:45:28;;;;;;;5.55;2.78;;;;;;;8.67;25.44;99974.06;5087023;28;20433;-80
2023/03/29 10:47:56;;;;;;;3.05;2.20;;;;;;;9.02;26.39;99965.28;5108174;28;20455;-80
2023/03/29 10:50:21;;;;;;;3.45;2.70;;;;;;;9.22;24.64;99947.25;5089305;28;20035;-80
2023/03/29 10:52:49;;;;;;;3.03;2.28;;;;;;;9.00;24.63;99957.22;5101833;28;20032;-79
2023/03/29 10:55:14;;;;;;;3.15;2.33;;;;;;;8.99;24.06;99952.78;5097585;28;20509;-80
2023/03/29 10:57:58;;;;;;;4.40;2.30;;;;;;;9.07;25.57;99954.84;5108346;28;20020;-79
2023/03/29 11:00:41;;;;;;;2.67;2.33;;;;;;;9.04;24.00;99971.38;5082758;28;20440;-80
2023/03/29 11:03:25;;;;;;;5.80;3.03;;;;;;;8.99;23.91;99961.97;5096997;28;20103;-79
2023/03/29 11:06:29;;;;;;;2.97;2.33;;;;;;;9.05;22.51;99950.69;5090294;28;20062;-80
2023/03/29 11:09:01;;;;;;;7.53;3.13;;;;;;;9.36;24.27;99942.44;5057497;28;20086;-80
2023/03/29 11:11:51;;;;;;;3.67;1.95;;;;;;;9.48;22.84;99944.69;5091022;28;20448;-79
2023/03/29 11:14:25;;;;;;;6.20;2.47;;;;;;;9.19;24.28;99934.75;5082392;28;20023;-80
2023/03/29 11:17:26;;;;;;;5.03;2.05;;;;;;;9.33;23.85;99934.72;5110562;28;20028;-80
2023/03/29 11:20:13;;;;;;;3.50;2.10;;;;;;;9.65;24.19;99930.03;5084073;28;20145;-80
2023/03/29 11:23:10;;;;;;;2.63;1.92;;;;;;;9.67;24.49;99922.16;5085619;28;20027;-81
2023/03/29 11:26:12;;;;;;;2.65;2.33;;;;;;;9.66;23.20;99923.31;5086880;28;20024;-80
2023/03/29 11:28:51;;;;;;;3.95;2.10;;;;;;;9.65;23.46;99930.03;5068298;28;20130;-79
2023/03/29 11:31:17;;;;;;;3.22;2.03;;;;;;;9.68;23.24;99911.81;5104040;28;20022;-79
2023/03/29 11:34:30;;;;;;;4.68;2.65;;;;;;;9.89;23.95;99909.28;5111444;28;20114;-80
2023/03/29 11:37:08;;;;;;;3.80;2.55;;;;;;;9.75;22.85;99903.81;5067892;28;20520;-80
2023/03/29 11:40:06;;;;;;;3.15;2.17;;;;;;;9.75;23.56;99891.78;5089486;28;20011;-80
2023/03/29 11:42:37;;;;;;;3.30;2.15;;;;;;;9.88;22.99;99887.28;5079130;28;20035;-81
2023/03/29 11:45:06;;;;;;;2.13;1.88;;;;;;;9.82;23.04;99887.41;5090083;28;20106;-81
2023/03/29 11:47:37;;;;;;;2.10;1.90;;;;;;;9.77;22.44;99875.53;5091519;28;20063;-80
2023/03/29 11:50:18;;;;;;;8.38;2.10;;;;;;;10.15;23.78;99886.28;5099464;28;20422;-80
2023/03/29 11:53:12;;;;;;;2.35;1.88;;;;;;;10.47;22.38;99875.06;5109649;28;20024;-79